首页
METAR-TAF:

METAR-TAF

机场 :

Cazaux, 法国

纬度: 44-32N, 经度: 001-08W, 海拔: 25米

当前天气观测

该预报发布于25分钟前的18:30 UTC
风速9节,风向东转东北
温度 35°C
湿度 34%
气压 1016 hPa
能见度10公里或以上
1500米以下无云,无积雨云

METAR: LFBC 221830Z AUTO 06009KT CAVOK 35/17 Q1016 NOSIG

时间: 20:55 (18:55 UTC)

预报

该预报发布于4小时和55分钟前的14:00 UTC
预报有效从22日的 15点(UTC)到 23日的 15点(UTC)
风速10节,风向西北
能见度10公里或以上
1500米以下无云,无积雨云
成为
从 22日的 19点(UTC)到 22日的 21点(UTC)
风速7节,风向
几率 30% :
短暂存在
从 22日的 23点(UTC)到 23日的 06点(UTC)
风速15节,风向西,有时为25节阵风
散云层高于14000英尺, 塔状积云.
短暂存在
从 23日的 06点(UTC)到 23日的 12点(UTC)
散云层高于10000英尺, 积雨云.
几率 40%
从 23日的 08点(UTC)到 23日的 12点(UTC)
散云层高于9000英尺, 积雨云.
雷暴
几率 30% :
短暂存在
从 23日的 12点(UTC)到 23日的 15点(UTC)
散云层高于10000英尺, 积雨云.

TAF: LFBC 221400Z 2215/2315 32010KT CAVOK BECMG 2219/2221 01007KT PROB30 TEMPO 2223/2306 27015G25KT SCT140TCU TEMPO 2306/2312 SCT100CB PROB40 2308/2312 TS SCT090CB PROB30 TEMPO 2312/2315 SCT100CB

超过4000个机场的气象观测和天气预报(METAR&TAF报告)。

可查询的气象台以黄色和红色小点在地图上表示。

将鼠标移到小点上方,可查看气象台名称。

然后点击查看天气观测和预报。

如需切换地图:点击带黑十字的绿色按钮放大地图;点击带横线的绿色按钮缩小地图;或者点击绿色箭头查看邻近地区的地图。


METAR-TAF: